createdAt,value
2018-12-13T00:00:26.615Z,7.57
2018-12-13T00:02:56.047Z,7.60
2018-12-13T00:05:24.103Z,7.77
2018-12-13T00:07:52.080Z,7.43
2018-12-13T00:10:20.065Z,8.63
2018-12-13T00:12:47.922Z,7.97
2018-12-13T00:15:18.496Z,7.97
2018-12-13T00:17:49.500Z,8.00
2018-12-13T00:20:17.571Z,8.80
2018-12-13T00:22:46.280Z,8.70
2018-12-13T00:25:14.631Z,8.53
2018-12-13T00:27:44.833Z,9.43
2018-12-13T00:30:13.002Z,9.57
2018-12-13T00:32:42.214Z,8.73
2018-12-13T00:35:11.397Z,9.23
2018-12-13T00:37:39.482Z,9.23
2018-12-13T00:40:09.176Z,9.20
2018-12-13T00:42:37.125Z,9.80
2018-12-13T00:45:05.935Z,8.73
2018-12-13T00:47:36.077Z,8.77
2018-12-13T00:50:11.146Z,8.53
2018-12-13T00:52:39.283Z,8.70
2018-12-13T00:55:13.227Z,9.40
2018-12-13T00:57:41.332Z,8.97
2018-12-13T01:00:09.488Z,9.23
2018-12-13T01:02:37.637Z,9.13
2018-12-13T01:05:06.251Z,9.17
2018-12-13T01:07:34.176Z,9.08
2018-12-13T01:10:02.682Z,9.40
2018-12-13T01:12:31.803Z,9.00
2018-12-13T01:14:59.731Z,9.43
2018-12-13T01:17:27.807Z,9.25
2018-12-13T01:19:55.645Z,9.20
2018-12-13T01:22:23.612Z,9.10
2018-12-13T01:24:52.977Z,8.75
2018-12-13T01:27:20.928Z,8.48
2018-12-13T01:29:54.955Z,8.33
2018-12-13T01:32:23.625Z,8.13
2018-12-13T01:34:51.948Z,8.57
2018-12-13T01:37:23.655Z,8.50
2018-12-13T01:39:51.726Z,8.23
2018-12-13T01:42:19.742Z,8.47
2018-12-13T01:44:53.369Z,7.30
2018-12-13T01:47:21.232Z,6.28
2018-12-13T01:49:56.609Z,6.60
2018-12-13T01:52:24.543Z,5.83
2018-12-13T01:54:57.927Z,5.47
2018-12-13T01:57:26.249Z,5.75
2018-12-13T01:59:54.429Z,5.43
2018-12-13T02:02:22.568Z,5.97
2018-12-13T02:04:50.678Z,5.67
2018-12-13T02:07:19.289Z,6.00
2018-12-13T02:09:48.476Z,6.10
2018-12-13T02:12:16.517Z,4.50
2018-12-13T02:14:44.704Z,3.60
2018-12-13T02:17:13.096Z,5.47
2018-12-13T02:19:41.419Z,5.20
2018-12-13T02:22:09.670Z,4.95
2018-12-13T02:24:39.501Z,4.87
2018-12-13T02:27:08.815Z,4.40
2018-12-13T02:29:36.748Z,4.42
2018-12-13T02:32:04.968Z,5.35
2018-12-13T02:34:33.195Z,4.60
2018-12-13T02:37:06.055Z,4.95
2018-12-13T02:39:31.582Z,5.03
2018-12-13T02:41:59.830Z,5.27
2018-12-13T02:44:28.703Z,4.22
2018-12-13T02:46:57.436Z,5.70
2018-12-13T02:49:25.913Z,5.27
2018-12-13T02:52:06.054Z,6.00
2018-12-13T02:54:52.375Z,5.70
2018-12-13T02:57:20.929Z,6.17
2018-12-13T02:59:49.674Z,6.25
2018-12-13T03:02:23.891Z,6.37
2018-12-13T03:04:55.769Z,6.25
2018-12-13T03:07:24.069Z,5.87
2018-12-13T03:09:52.286Z,6.17
2018-12-13T03:12:20.641Z,5.90
2018-12-13T03:14:52.291Z,6.25
2018-12-13T03:19:58.622Z,6.35
2018-12-13T03:22:27.205Z,6.10
2018-12-13T03:24:55.516Z,5.35
2018-12-13T03:27:24.815Z,6.10
2018-12-13T03:29:53.866Z,6.40
2018-12-13T03:32:23.108Z,5.92
2018-12-13T03:34:51.719Z,5.72
2018-12-13T03:37:25.522Z,5.35
2018-12-13T03:40:00.313Z,4.65
2018-12-13T03:42:32.382Z,5.55
2018-12-13T03:45:09.066Z,5.80
2018-12-13T03:47:42.348Z,4.70
2018-12-13T03:53:27.176Z,4.97
2018-12-13T03:55:55.500Z,4.65
2018-12-13T03:58:35.002Z,5.90
2018-12-13T04:01:14.916Z,5.22
2018-12-13T04:03:48.511Z,5.47
2018-12-13T04:06:17.092Z,5.97
2018-12-13T04:08:54.506Z,6.80
2018-12-13T04:11:33.303Z,4.85
2018-12-13T04:14:01.522Z,5.92
2018-12-13T04:16:29.432Z,6.47
2018-12-13T04:18:57.364Z,5.87
2018-12-13T04:21:27.017Z,5.78
2018-12-13T04:23:54.875Z,6.37
2018-12-13T04:26:22.778Z,6.80
2018-12-13T04:28:50.682Z,5.95
2018-12-13T04:31:22.644Z,6.67
2018-12-13T04:33:50.611Z,6.90
2018-12-13T04:36:29.744Z,5.08
2018-12-13T04:39:06.132Z,6.45
2018-12-13T04:41:39.098Z,6.37
2018-12-13T04:44:06.966Z,7.03
2018-12-13T04:46:34.795Z,6.08
2018-12-13T04:49:02.680Z,6.42
2018-12-13T04:51:38.287Z,6.12
2018-12-13T04:54:19.809Z,5.08
2018-12-13T04:56:47.776Z,6.58
2018-12-13T04:59:15.796Z,6.62
2018-12-13T05:01:55.900Z,6.78
2018-12-13T05:04:33.223Z,7.22
2018-12-13T05:07:04.849Z,6.40
2018-12-13T05:09:38.700Z,6.80
2018-12-13T05:12:13.559Z,7.08
2018-12-13T05:14:41.484Z,7.12
2018-12-13T05:17:09.471Z,7.15
2018-12-13T05:19:37.349Z,7.08
2018-12-13T05:22:05.266Z,7.65
2018-12-13T05:24:38.777Z,8.30
2018-12-13T05:27:07.657Z,8.15
2018-12-13T05:29:35.544Z,7.75
2018-12-13T05:32:04.483Z,7.37
2018-12-13T05:34:32.445Z,10.13
2018-12-13T05:37:00.325Z,8.13
2018-12-13T05:39:31.895Z,9.80
2018-12-13T05:41:59.937Z,11.75
2018-12-13T05:44:27.957Z,7.95
2018-12-13T05:46:55.894Z,7.85
2018-12-13T05:49:23.770Z,8.15
2018-12-13T05:51:52.880Z,7.22
2018-12-13T05:54:29.168Z,7.92
2018-12-13T05:56:58.272Z,7.85
2018-12-13T05:59:26.255Z,8.68
2018-12-13T06:02:02.792Z,8.45
2018-12-13T06:04:30.781Z,7.95
2018-12-13T06:13:13.280Z,8.05
2018-12-13T06:15:41.966Z,6.40
2018-12-13T06:24:20.763Z,8.35
2018-12-13T06:26:55.901Z,8.15
2018-12-13T06:29:41.811Z,8.25
2018-12-13T06:40:48.975Z,8.50
2018-12-13T06:43:18.656Z,8.33
2018-12-13T06:52:34.429Z,8.38
2018-12-13T06:55:18.104Z,8.25
2018-12-13T06:57:46.562Z,8.35
2018-12-13T07:00:14.735Z,8.40
2018-12-13T07:02:42.657Z,8.75
2018-12-13T07:05:10.611Z,9.70
2018-12-13T07:07:39.719Z,8.70
2018-12-13T07:10:10.950Z,8.78
2018-12-13T07:12:41.640Z,9.60
2018-12-13T07:15:11.139Z,8.88
2018-12-13T07:17:39.495Z,8.75
2018-12-13T07:20:08.033Z,9.53
2018-12-13T07:22:38.410Z,8.65
2018-12-13T07:28:45.380Z,8.10
2018-12-13T07:31:21.691Z,8.00
2018-12-13T07:33:58.181Z,8.03
2018-12-13T07:36:30.615Z,8.23
2018-12-13T07:38:59.861Z,8.17
2018-12-13T07:41:30.503Z,7.90
2018-12-13T07:47:20.935Z,8.20
2018-12-13T07:49:57.397Z,8.70
2018-12-13T07:52:28.136Z,8.78
2018-12-13T07:54:56.109Z,9.03
2018-12-13T07:57:28.204Z,8.53
2018-12-13T07:59:56.141Z,8.35
2018-12-13T08:02:33.120Z,8.55
2018-12-13T08:05:04.425Z,7.80
2018-12-13T08:11:00.661Z,7.87
2018-12-13T08:16:29.823Z,6.57
2018-12-13T08:19:01.109Z,6.93
2018-12-13T08:21:31.444Z,9.30
2018-12-13T08:24:22.367Z,9.33
2018-12-13T08:27:08.415Z,7.83
2018-12-13T08:32:02.177Z,8.50
2018-12-13T08:34:43.281Z,8.93
2018-12-13T08:37:11.707Z,7.90
2018-12-13T08:39:42.045Z,7.35
2018-12-13T08:42:16.675Z,7.22
2018-12-13T08:44:44.897Z,6.53
2018-12-13T08:47:14.389Z,7.58
2018-12-13T08:49:42.485Z,8.35
2018-12-13T08:52:11.789Z,7.95
2018-12-13T08:54:39.940Z,7.97
2018-12-13T08:57:08.605Z,6.85
2018-12-13T08:59:36.559Z,8.53
2018-12-13T09:02:41.181Z,6.12
2018-12-13T09:05:43.417Z,5.90
2018-12-13T09:11:36.636Z,6.75
2018-12-13T09:14:10.707Z,7.47
2018-12-13T09:16:43.435Z,8.15
2018-12-13T09:19:15.898Z,7.28
2018-12-13T09:21:53.343Z,4.72
2018-12-13T09:24:48.935Z,7.30
2018-12-13T09:27:24.724Z,8.70
2018-12-13T09:33:17.683Z,5.33
2018-12-13T09:35:55.052Z,4.95
2018-12-13T09:38:39.785Z,6.70
2018-12-13T09:41:11.428Z,7.25
2018-12-13T09:44:18.314Z,5.58
2018-12-13T09:49:51.035Z,5.78
2018-12-13T09:52:21.155Z,6.83
2018-12-13T09:54:51.244Z,7.22
2018-12-13T10:00:33.198Z,5.17
2018-12-13T10:03:08.909Z,6.72
2018-12-13T10:05:37.688Z,7.28
2018-12-13T10:08:06.903Z,7.33
2018-12-13T10:10:36.047Z,9.13
2018-12-13T10:13:04.075Z,7.07
2018-12-13T10:15:33.675Z,6.40
2018-12-13T10:18:01.746Z,7.60
2018-12-13T10:20:31.316Z,7.57
2018-12-13T10:23:10.043Z,7.40
2018-12-13T10:26:07.416Z,7.63
2018-12-13T10:28:36.620Z,7.30
2018-12-13T10:31:05.920Z,6.13
2018-12-13T10:39:37.711Z,7.30
2018-12-13T10:42:11.731Z,5.50
2018-12-13T10:45:01.459Z,6.27
2018-12-13T10:47:50.192Z,7.03
2018-12-13T10:53:19.427Z,5.80
2018-12-13T10:56:26.344Z,5.00
2018-12-13T10:58:57.299Z,4.80
2018-12-13T11:01:32.034Z,4.00
2018-12-13T11:04:30.167Z,6.20
2018-12-13T11:10:16.980Z,5.15
2018-12-13T11:12:54.938Z,4.90
2018-12-13T11:15:26.062Z,6.03
2018-12-13T11:17:56.195Z,4.63
2018-12-13T11:20:24.601Z,6.23
2018-12-13T11:22:52.775Z,5.57
2018-12-13T11:25:27.262Z,5.13
2018-12-13T11:29:38.371Z,4.27
2018-12-13T11:32:29.303Z,4.63
2018-12-13T11:35:35.467Z,5.43
2018-12-13T11:38:21.970Z,3.57
2018-12-13T11:41:08.710Z,4.90
2018-12-13T11:44:13.364Z,4.33
2018-12-13T11:50:00.653Z,4.03
2018-12-13T11:52:38.196Z,4.30
2018-12-13T11:55:18.974Z,3.93
2018-12-13T11:57:51.634Z,4.40
2018-12-13T12:00:34.555Z,5.47
2018-12-13T12:03:09.487Z,4.87
2018-12-13T12:05:56.751Z,4.40
2018-12-13T12:08:32.892Z,5.43
2018-12-13T12:11:14.957Z,5.83
2018-12-13T12:14:12.225Z,4.43
2018-12-13T12:16:42.274Z,3.77
2018-12-13T12:19:30.292Z,4.43
2018-12-13T12:22:03.667Z,3.97
2018-12-13T12:24:38.181Z,4.30
2018-12-13T12:27:08.724Z,3.40
2018-12-13T12:29:36.862Z,4.60
2018-12-13T12:40:57.618Z,3.45
2018-12-13T12:43:28.178Z,3.43
2018-12-13T12:46:04.625Z,4.80
2018-12-13T12:51:45.843Z,4.20
2018-12-13T12:54:24.856Z,4.28
2018-12-13T12:56:57.948Z,4.30
2018-12-13T13:05:37.637Z,3.15
2018-12-13T13:08:12.513Z,5.37
2018-12-13T13:10:44.060Z,4.60
2018-12-13T13:13:14.971Z,4.37
2018-12-13T13:15:56.011Z,3.93
2018-12-13T13:18:24.543Z,4.60
2018-12-13T13:24:01.669Z,6.30
2018-12-13T13:27:16.580Z,5.17
2018-12-13T13:29:49.792Z,4.97
2018-12-13T13:35:27.244Z,5.80
2018-12-13T13:38:50.523Z,5.50
2018-12-13T13:47:57.279Z,5.80
2018-12-13T13:55:10.867Z,6.60
2018-12-13T13:58:16.075Z,6.33
2018-12-13T14:00:46.392Z,6.53
2018-12-13T14:03:41.703Z,6.93
2018-12-13T14:06:11.754Z,5.90
2018-12-13T14:08:44.947Z,7.37
2018-12-13T14:12:00.439Z,4.50
2018-12-13T14:18:10.935Z,6.20
2018-12-13T14:20:47.124Z,6.97
2018-12-13T14:23:16.498Z,6.90
2018-12-13T14:26:12.702Z,7.72
2018-12-13T14:28:46.680Z,7.10
2018-12-13T14:31:18.394Z,7.08
2018-12-13T14:34:05.003Z,7.50
2018-12-13T14:40:07.281Z,6.72
2018-12-13T14:42:43.128Z,5.90
2018-12-13T14:45:44.756Z,6.55
2018-12-13T14:49:22.490Z,7.90
2018-12-13T15:00:59.251Z,9.30
2018-12-13T15:03:27.278Z,7.60
2018-12-13T15:05:59.234Z,7.90
2018-12-13T15:08:31.244Z,8.10
2018-12-13T15:11:47.075Z,8.33
2018-12-13T15:18:11.807Z,6.67
2018-12-13T15:20:53.001Z,7.42
2018-12-13T15:23:25.159Z,7.57
2018-12-13T15:26:34.395Z,6.03
2018-12-13T15:29:04.379Z,7.83
2018-12-13T15:31:34.794Z,7.55
2018-12-13T15:34:28.317Z,8.57
2018-12-13T15:37:35.653Z,6.83
2018-12-13T15:40:55.228Z,7.22
2018-12-13T15:50:42.609Z,7.87
2018-12-13T15:53:24.082Z,6.97
2018-12-13T15:55:55.521Z,8.18
2018-12-13T15:58:27.675Z,8.90
2018-12-13T16:03:47.012Z,8.13
2018-12-13T16:06:21.991Z,7.70
2018-12-13T16:08:52.612Z,7.73
2018-12-13T16:11:29.287Z,7.60
2018-12-13T16:14:11.383Z,7.87
2018-12-13T16:17:03.889Z,7.67
2018-12-13T16:28:44.915Z,6.40
2018-12-13T16:33:52.754Z,5.20
2018-12-13T16:36:48.091Z,5.10
2018-12-13T16:39:38.851Z,4.80
2018-12-13T16:42:20.382Z,4.33
2018-12-13T16:44:49.629Z,5.17
2018-12-13T16:47:23.086Z,5.80
2018-12-13T16:50:06.849Z,4.58
2018-12-13T16:52:49.877Z,5.10
2018-12-13T16:55:39.135Z,6.05
2018-12-13T16:58:31.224Z,6.70
2018-12-13T17:00:59.711Z,5.80
2018-12-13T17:03:43.063Z,6.53
2018-12-13T17:06:11.358Z,5.08
2018-12-13T17:08:42.583Z,6.55
2018-12-13T17:11:17.287Z,6.20
2018-12-13T17:14:24.869Z,5.78
2018-12-13T17:17:01.189Z,4.53
2018-12-13T17:19:33.660Z,5.83
2018-12-13T17:22:01.883Z,6.72
2018-12-13T17:24:32.592Z,7.00
2018-12-13T17:27:07.582Z,5.42
2018-12-13T17:29:36.979Z,6.25
2018-12-13T17:32:15.630Z,6.58
2018-12-13T17:34:52.348Z,6.10
2018-12-13T17:37:28.263Z,6.20
2018-12-13T17:39:58.180Z,5.60
2018-12-13T17:42:32.583Z,5.28
2018-12-13T17:45:02.272Z,5.10
2018-12-13T17:47:41.779Z,6.25
2018-12-13T17:50:14.664Z,6.15
2018-12-13T17:52:55.612Z,6.12
2018-12-13T17:55:41.014Z,5.72
2018-12-13T17:58:09.728Z,5.78
2018-12-13T18:00:42.169Z,6.47
2018-12-13T18:03:11.806Z,6.10
2018-12-13T18:05:59.839Z,5.62
2018-12-13T18:08:39.078Z,5.10
2018-12-13T18:17:28.057Z,5.55
2018-12-13T18:19:56.074Z,7.25
2018-12-13T18:22:26.028Z,6.92
2018-12-13T18:24:54.294Z,8.08
2018-12-13T18:27:23.565Z,7.33
2018-12-13T18:29:55.231Z,6.83
2018-12-13T18:32:40.231Z,7.33
2018-12-13T18:35:19.799Z,6.77
2018-12-13T18:37:49.365Z,7.05
2018-12-13T18:42:58.988Z,7.37
2018-12-13T18:45:31.090Z,7.72
2018-12-13T18:48:05.637Z,6.70
2018-12-13T18:50:34.866Z,7.97
2018-12-13T18:53:14.405Z,8.33
2018-12-13T18:55:46.817Z,7.83
2018-12-13T18:58:22.458Z,7.58
2018-12-13T19:00:51.009Z,7.15
2018-12-13T19:03:27.105Z,8.05
2018-12-13T19:06:34.724Z,9.23
2018-12-13T19:09:07.970Z,7.20
2018-12-13T19:11:38.751Z,7.58
2018-12-13T19:14:10.319Z,6.80
2018-12-13T19:16:53.514Z,8.25
2018-12-13T19:19:30.859Z,7.87
2018-12-13T19:22:04.392Z,7.40
2018-12-13T19:24:53.050Z,7.78
2018-12-13T19:27:24.471Z,7.70
2018-12-13T19:30:30.314Z,8.97
2018-12-13T19:33:13.094Z,9.00
2018-12-13T19:35:45.125Z,7.42
2018-12-13T19:38:15.403Z,8.83
2018-12-13T19:40:48.514Z,8.68
2018-12-13T19:43:23.618Z,8.00
2018-12-13T19:51:52.642Z,19.95
2018-12-13T19:54:22.266Z,8.00
2018-12-13T19:56:57.517Z,8.27
2018-12-13T20:00:05.843Z,8.10
2018-12-13T20:05:45.352Z,5.85
2018-12-13T20:08:16.508Z,7.83
2018-12-13T20:10:54.819Z,7.58
2018-12-13T20:13:24.848Z,8.25
2018-12-13T20:15:57.306Z,7.90
2018-12-13T20:18:26.722Z,8.45
2018-12-13T20:20:55.001Z,7.90
2018-12-13T20:23:23.698Z,7.80
2018-12-13T20:25:52.765Z,8.00
2018-12-13T20:31:13.526Z,8.10
2018-12-13T20:33:47.268Z,9.08
2018-12-13T20:36:38.370Z,9.18
2018-12-13T20:39:12.160Z,8.08
2018-12-13T20:41:53.672Z,9.98
2018-12-13T20:44:32.062Z,9.73
2018-12-13T20:47:07.124Z,9.28
2018-12-13T20:49:54.857Z,9.05
2018-12-13T20:52:33.781Z,8.30
2018-12-13T20:55:07.613Z,9.68
2018-12-13T20:57:42.105Z,8.98
2018-12-13T21:00:14.027Z,8.68
2018-12-13T21:02:42.470Z,9.30
2018-12-13T21:05:13.647Z,8.95
2018-12-13T21:07:43.096Z,7.40
2018-12-13T21:10:20.020Z,10.20
2018-12-13T21:12:54.583Z,8.65
2018-12-13T21:15:43.794Z,10.23
2018-12-13T21:18:19.648Z,9.30
2018-12-13T21:20:51.093Z,9.35
2018-12-13T21:26:06.153Z,9.98
2018-12-13T21:28:35.828Z,10.70
2018-12-13T21:31:07.301Z,9.65
2018-12-13T21:33:36.054Z,10.63
2018-12-13T21:36:06.197Z,10.05
2018-12-13T21:38:35.897Z,9.83
2018-12-13T21:41:13.742Z,10.80
2018-12-13T21:43:42.048Z,9.70
2018-12-13T21:46:13.729Z,9.55
2018-12-13T21:48:47.315Z,9.15
2018-12-13T21:51:16.002Z,8.43
2018-12-13T21:53:55.413Z,8.53
2018-12-13T21:56:28.930Z,6.78
2018-12-13T21:59:04.400Z,8.75
2018-12-13T22:01:59.436Z,8.48
2018-12-13T22:04:33.508Z,7.85
2018-12-13T22:09:56.958Z,8.85
2018-12-13T22:16:05.226Z,8.08
2018-12-13T22:18:35.537Z,8.33
2018-12-13T22:21:06.441Z,6.45
2018-12-13T22:23:40.860Z,7.28
2018-12-13T22:26:11.588Z,7.28
2018-12-13T22:28:56.738Z,5.85
2018-12-13T22:31:28.754Z,7.33
2018-12-13T22:33:58.033Z,7.00
2018-12-13T22:36:43.588Z,7.28
2018-12-13T22:39:11.773Z,7.97
2018-12-13T22:41:57.386Z,7.75
2018-12-13T22:44:25.997Z,8.20
2018-12-13T22:46:56.314Z,7.22
2018-12-13T22:49:25.024Z,6.47
2018-12-13T22:51:58.066Z,7.08
2018-12-13T22:54:35.592Z,7.28
2018-12-13T22:57:03.983Z,7.15
2018-12-13T22:59:37.415Z,7.12
2018-12-13T23:02:08.358Z,7.50
2018-12-13T23:04:45.782Z,6.00
2018-12-13T23:07:14.722Z,6.58
2018-12-13T23:09:43.232Z,6.97
2018-12-13T23:12:20.816Z,6.40
2018-12-13T23:14:49.935Z,6.33
2018-12-13T23:17:18.761Z,6.58
2018-12-13T23:19:46.623Z,5.85
2018-12-13T23:22:15.964Z,6.10
2018-12-13T23:24:44.148Z,5.90
2018-12-13T23:27:13.444Z,6.47
2018-12-13T23:29:41.686Z,5.53
2018-12-13T23:32:09.633Z,6.42
2018-12-13T23:34:39.100Z,6.47
2018-12-13T23:37:07.102Z,5.90
2018-12-13T23:39:35.111Z,5.42
2018-12-13T23:42:03.059Z,5.53
2018-12-13T23:44:31.425Z,6.12
2018-12-13T23:46:59.395Z,5.80
2018-12-13T23:49:27.432Z,5.78
2018-12-13T23:51:55.566Z,5.83
2018-12-13T23:54:27.186Z,6.20
2018-12-13T23:56:55.403Z,6.10
2018-12-13T23:59:24.281Z,5.28
